sensor_id;sensor_type;location;lat;lon;timestamp;P1;durP1;ratioP1;P2;durP2;ratioP2
21438;SDS011;10880;50.302;18.736;2023-04-03T00:01:49;3.40;;;3.10;;
21438;SDS011;10880;50.302;18.736;2023-04-03T00:04:23;4.40;;;3.30;;
21438;SDS011;10880;50.302;18.736;2023-04-03T00:07:17;4.73;;;3.70;;
21438;SDS011;10880;50.302;18.736;2023-04-03T00:09:50;4.33;;;3.50;;
21438;SDS011;10880;50.302;18.736;2023-04-03T00:12:45;4.50;;;3.63;;
21438;SDS011;10880;50.302;18.736;2023-04-03T00:15:18;4.03;;;3.50;;
21438;SDS011;10880;50.302;18.736;2023-04-03T00:18:13;4.03;;;3.20;;
21438;SDS011;10880;50.302;18.736;2023-04-03T00:20:47;3.63;;;3.20;;
21438;SDS011;10880;50.302;18.736;2023-04-03T00:23:41;3.93;;;2.90;;
21438;SDS011;10880;50.302;18.736;2023-04-03T00:26:16;4.23;;;3.03;;
21438;SDS011;10880;50.302;18.736;2023-04-03T00:29:09;4.50;;;3.53;;
21438;SDS011;10880;50.302;18.736;2023-04-03T00:31:43;5.33;;;3.50;;
21438;SDS011;10880;50.302;18.736;2023-04-03T00:34:36;5.73;;;4.00;;
21438;SDS011;10880;50.302;18.736;2023-04-03T00:37:10;3.90;;;3.30;;
21438;SDS011;10880;50.302;18.736;2023-04-03T00:40:05;6.90;;;4.10;;
21438;SDS011;10880;50.302;18.736;2023-04-03T00:42:46;4.27;;;3.63;;
21438;SDS011;10880;50.302;18.736;2023-04-03T00:45:37;5.00;;;3.70;;
21438;SDS011;10880;50.302;18.736;2023-04-03T00:48:29;4.77;;;3.70;;
21438;SDS011;10880;50.302;18.736;2023-04-03T00:51:24;7.17;;;4.67;;
21438;SDS011;10880;50.302;18.736;2023-04-03T00:54:07;5.17;;;4.13;;
21438;SDS011;10880;50.302;18.736;2023-04-03T00:56:55;6.10;;;4.30;;
21438;SDS011;10880;50.302;18.736;2023-04-03T00:59:39;5.83;;;3.87;;
21438;SDS011;10880;50.302;18.736;2023-04-03T01:02:36;4.30;;;3.20;;
21438;SDS011;10880;50.302;18.736;2023-04-03T01:05:25;3.47;;;3.17;;
21438;SDS011;10880;50.302;18.736;2023-04-03T01:08:19;6.07;;;4.10;;
21438;SDS011;10880;50.302;18.736;2023-04-03T01:10:54;3.90;;;2.90;;
21438;SDS011;10880;50.302;18.736;2023-04-03T01:13:48;4.83;;;3.83;;
21438;SDS011;10880;50.302;18.736;2023-04-03T01:16:24;6.20;;;4.00;;
21438;SDS011;10880;50.302;18.736;2023-04-03T01:19:18;4.20;;;3.40;;
21438;SDS011;10880;50.302;18.736;2023-04-03T01:25:09;6.90;;;3.70;;
21438;SDS011;10880;50.302;18.736;2023-04-03T01:27:42;8.30;;;3.87;;
21438;SDS011;10880;50.302;18.736;2023-04-03T01:30:36;5.33;;;3.80;;
21438;SDS011;10880;50.302;18.736;2023-04-03T01:33:27;5.50;;;3.90;;
21438;SDS011;10880;50.302;18.736;2023-04-03T01:36:21;5.83;;;3.73;;
21438;SDS011;10880;50.302;18.736;2023-04-03T01:38:58;5.80;;;3.67;;
21438;SDS011;10880;50.302;18.736;2023-04-03T01:41:56;7.90;;;4.23;;
21438;SDS011;10880;50.302;18.736;2023-04-03T01:44:36;5.90;;;3.90;;
21438;SDS011;10880;50.302;18.736;2023-04-03T01:47:30;5.70;;;3.80;;
21438;SDS011;10880;50.302;18.736;2023-04-03T01:50:05;5.50;;;3.60;;
21438;SDS011;10880;50.302;18.736;2023-04-03T01:52:59;5.47;;;3.13;;
21438;SDS011;10880;50.302;18.736;2023-04-03T01:55:32;5.83;;;3.20;;
21438;SDS011;10880;50.302;18.736;2023-04-03T01:58:27;4.57;;;3.00;;
21438;SDS011;10880;50.302;18.736;2023-04-03T02:01:01;4.10;;;3.10;;
21438;SDS011;10880;50.302;18.736;2023-04-03T02:03:57;4.20;;;3.13;;
21438;SDS011;10880;50.302;18.736;2023-04-03T02:06:50;5.83;;;3.30;;
21438;SDS011;10880;50.302;18.736;2023-04-03T02:09:25;8.80;;;3.83;;
21438;SDS011;10880;50.302;18.736;2023-04-03T02:12:19;5.30;;;3.00;;
21438;SDS011;10880;50.302;18.736;2023-04-03T02:14:53;5.27;;;3.20;;
21438;SDS011;10880;50.302;18.736;2023-04-03T02:17:48;5.63;;;3.10;;
21438;SDS011;10880;50.302;18.736;2023-04-03T02:20:24;4.77;;;3.47;;
21438;SDS011;10880;50.302;18.736;2023-04-03T02:23:17;7.33;;;3.17;;
21438;SDS011;10880;50.302;18.736;2023-04-03T02:25:51;4.10;;;3.10;;
21438;SDS011;10880;50.302;18.736;2023-04-03T02:28:44;4.93;;;3.23;;
21438;SDS011;10880;50.302;18.736;2023-04-03T02:31:18;5.40;;;3.30;;
21438;SDS011;10880;50.302;18.736;2023-04-03T02:34:13;4.73;;;3.33;;
21438;SDS011;10880;50.302;18.736;2023-04-03T02:36:48;5.20;;;3.10;;
21438;SDS011;10880;50.302;18.736;2023-04-03T02:39:41;6.20;;;3.43;;
21438;SDS011;10880;50.302;18.736;2023-04-03T02:42:14;5.47;;;3.53;;
21438;SDS011;10880;50.302;18.736;2023-04-03T02:45:09;5.10;;;3.00;;
21438;SDS011;10880;50.302;18.736;2023-04-03T02:47:43;6.70;;;3.47;;
21438;SDS011;10880;50.302;18.736;2023-04-03T02:50:36;4.07;;;2.90;;
21438;SDS011;10880;50.302;18.736;2023-04-03T02:53:09;5.80;;;3.60;;
21438;SDS011;10880;50.302;18.736;2023-04-03T02:56:03;6.33;;;3.73;;
21438;SDS011;10880;50.302;18.736;2023-04-03T02:58:38;31.57;;;10.33;;
21438;SDS011;10880;50.302;18.736;2023-04-03T03:01:32;33.27;;;10.73;;
21438;SDS011;10880;50.302;18.736;2023-04-03T03:04:07;38.40;;;12.07;;
21438;SDS011;10880;50.302;18.736;2023-04-03T03:07:00;20.53;;;6.13;;
21438;SDS011;10880;50.302;18.736;2023-04-03T03:09:34;12.37;;;4.50;;
21438;SDS011;10880;50.302;18.736;2023-04-03T03:12:27;10.90;;;4.00;;
21438;SDS011;10880;50.302;18.736;2023-04-03T03:15:01;7.43;;;3.33;;
21438;SDS011;10880;50.302;18.736;2023-04-03T03:17:55;9.37;;;3.23;;
21438;SDS011;10880;50.302;18.736;2023-04-03T03:20:30;7.33;;;3.07;;
21438;SDS011;10880;50.302;18.736;2023-04-03T03:23:29;7.10;;;3.40;;
21438;SDS011;10880;50.302;18.736;2023-04-03T03:26:07;7.63;;;3.30;;
21438;SDS011;10880;50.302;18.736;2023-04-03T03:29:02;6.83;;;3.17;;
21438;SDS011;10880;50.302;18.736;2023-04-03T03:31:36;4.50;;;2.70;;
21438;SDS011;10880;50.302;18.736;2023-04-03T03:34:29;4.17;;;2.73;;
21438;SDS011;10880;50.302;18.736;2023-04-03T03:37:02;3.17;;;2.60;;
21438;SDS011;10880;50.302;18.736;2023-04-03T03:39:55;4.50;;;2.80;;
21438;SDS011;10880;50.302;18.736;2023-04-03T03:42:29;4.80;;;2.67;;
21438;SDS011;10880;50.302;18.736;2023-04-03T03:45:22;4.07;;;2.70;;
21438;SDS011;10880;50.302;18.736;2023-04-03T03:47:56;4.53;;;2.70;;
21438;SDS011;10880;50.302;18.736;2023-04-03T03:50:50;4.10;;;2.50;;
21438;SDS011;10880;50.302;18.736;2023-04-03T03:53:28;3.03;;;2.47;;
21438;SDS011;10880;50.302;18.736;2023-04-03T03:56:26;4.33;;;2.80;;
21438;SDS011;10880;50.302;18.736;2023-04-03T03:59:02;4.23;;;2.43;;
21438;SDS011;10880;50.302;18.736;2023-04-03T04:01:55;3.00;;;2.40;;
21438;SDS011;10880;50.302;18.736;2023-04-03T04:04:30;4.27;;;2.37;;
21438;SDS011;10880;50.302;18.736;2023-04-03T04:07:24;3.87;;;2.53;;
21438;SDS011;10880;50.302;18.736;2023-04-03T04:10:01;4.40;;;2.70;;
21438;SDS011;10880;50.302;18.736;2023-04-03T04:12:57;4.53;;;2.50;;
21438;SDS011;10880;50.302;18.736;2023-04-03T04:15:34;7.07;;;2.90;;
21438;SDS011;10880;50.302;18.736;2023-04-03T04:18:28;5.10;;;3.20;;
21438;SDS011;10880;50.302;18.736;2023-04-03T04:21:02;6.10;;;2.70;;
21438;SDS011;10880;50.302;18.736;2023-04-03T04:23:57;6.70;;;3.00;;
21438;SDS011;10880;50.302;18.736;2023-04-03T04:26:32;4.27;;;2.83;;
21438;SDS011;10880;50.302;18.736;2023-04-03T04:29:27;4.87;;;2.63;;
21438;SDS011;10880;50.302;18.736;2023-04-03T04:32:02;3.33;;;2.43;;
21438;SDS011;10880;50.302;18.736;2023-04-03T04:34:58;5.27;;;3.00;;
21438;SDS011;10880;50.302;18.736;2023-04-03T04:37:34;5.23;;;2.97;;
21438;SDS011;10880;50.302;18.736;2023-04-03T04:40:30;5.40;;;3.27;;
21438;SDS011;10880;50.302;18.736;2023-04-03T04:43:03;6.93;;;3.20;;
21438;SDS011;10880;50.302;18.736;2023-04-03T04:48:46;5.03;;;2.80;;
21438;SDS011;10880;50.302;18.736;2023-04-03T04:51:42;4.57;;;2.77;;
21438;SDS011;10880;50.302;18.736;2023-04-03T04:54:18;4.73;;;2.53;;
21438;SDS011;10880;50.302;18.736;2023-04-03T04:57:13;3.83;;;2.50;;
21438;SDS011;10880;50.302;18.736;2023-04-03T04:59:50;4.03;;;2.50;;
21438;SDS011;10880;50.302;18.736;2023-04-03T05:02:46;5.17;;;2.93;;
21438;SDS011;10880;50.302;18.736;2023-04-03T05:05:19;6.40;;;3.20;;
21438;SDS011;10880;50.302;18.736;2023-04-03T05:08:12;6.30;;;2.97;;
21438;SDS011;10880;50.302;18.736;2023-04-03T05:10:45;3.10;;;2.30;;
21438;SDS011;10880;50.302;18.736;2023-04-03T05:13:40;5.53;;;2.60;;
21438;SDS011;10880;50.302;18.736;2023-04-03T05:16:13;4.37;;;2.60;;
21438;SDS011;10880;50.302;18.736;2023-04-03T05:19:09;4.37;;;2.50;;
21438;SDS011;10880;50.302;18.736;2023-04-03T05:21:43;4.17;;;2.57;;
21438;SDS011;10880;50.302;18.736;2023-04-03T05:24:36;5.73;;;3.03;;
21438;SDS011;10880;50.302;18.736;2023-04-03T05:27:11;5.93;;;3.00;;
21438;SDS011;10880;50.302;18.736;2023-04-03T05:30:06;7.50;;;2.80;;
21438;SDS011;10880;50.302;18.736;2023-04-03T05:32:41;4.97;;;2.77;;
21438;SDS011;10880;50.302;18.736;2023-04-03T05:35:46;4.93;;;2.83;;
21438;SDS011;10880;50.302;18.736;2023-04-03T05:38:25;4.20;;;2.40;;
21438;SDS011;10880;50.302;18.736;2023-04-03T05:41:19;3.27;;;2.60;;
21438;SDS011;10880;50.302;18.736;2023-04-03T05:43:53;4.27;;;2.70;;
21438;SDS011;10880;50.302;18.736;2023-04-03T05:46:47;6.27;;;3.10;;
21438;SDS011;10880;50.302;18.736;2023-04-03T05:49:21;3.53;;;2.90;;
21438;SDS011;10880;50.302;18.736;2023-04-03T05:55:00;5.53;;;2.70;;
21438;SDS011;10880;50.302;18.736;2023-04-03T05:57:54;4.40;;;2.70;;
21438;SDS011;10880;50.302;18.736;2023-04-03T06:00:28;5.83;;;2.60;;
21438;SDS011;10880;50.302;18.736;2023-04-03T06:03:23;4.03;;;2.50;;
21438;SDS011;10880;50.302;18.736;2023-04-03T06:05:58;6.30;;;3.20;;
21438;SDS011;10880;50.302;18.736;2023-04-03T06:08:51;9.03;;;3.10;;
21438;SDS011;10880;50.302;18.736;2023-04-03T06:11:25;5.87;;;3.07;;
21438;SDS011;10880;50.302;18.736;2023-04-03T06:14:18;5.70;;;2.60;;
21438;SDS011;10880;50.302;18.736;2023-04-03T06:16:52;4.57;;;3.00;;
21438;SDS011;10880;50.302;18.736;2023-04-03T06:19:49;5.90;;;3.40;;
21438;SDS011;10880;50.302;18.736;2023-04-03T06:22:22;4.37;;;3.03;;
21438;SDS011;10880;50.302;18.736;2023-04-03T06:25:16;6.90;;;2.97;;
21438;SDS011;10880;50.302;18.736;2023-04-03T06:27:51;6.73;;;3.40;;
21438;SDS011;10880;50.302;18.736;2023-04-03T06:30:46;4.60;;;2.50;;
21438;SDS011;10880;50.302;18.736;2023-04-03T06:33:21;6.03;;;3.03;;
21438;SDS011;10880;50.302;18.736;2023-04-03T06:36:18;5.83;;;3.30;;
21438;SDS011;10880;50.302;18.736;2023-04-03T06:38:58;5.03;;;3.33;;
21438;SDS011;10880;50.302;18.736;2023-04-03T06:41:54;4.50;;;3.30;;
21438;SDS011;10880;50.302;18.736;2023-04-03T06:44:35;6.10;;;3.33;;
21438;SDS011;10880;50.302;18.736;2023-04-03T06:47:31;6.33;;;3.30;;
21438;SDS011;10880;50.302;18.736;2023-04-03T06:50:05;4.43;;;3.00;;
21438;SDS011;10880;50.302;18.736;2023-04-03T06:53:00;6.20;;;3.20;;
21438;SDS011;10880;50.302;18.736;2023-04-03T06:55:35;4.70;;;3.20;;
21438;SDS011;10880;50.302;18.736;2023-04-03T06:58:31;8.10;;;3.33;;
21438;SDS011;10880;50.302;18.736;2023-04-03T07:01:09;8.67;;;3.37;;
21438;SDS011;10880;50.302;18.736;2023-04-03T07:04:05;5.93;;;3.20;;
21438;SDS011;10880;50.302;18.736;2023-04-03T07:10:53;6.87;;;3.60;;
21438;SDS011;10880;50.302;18.736;2023-04-03T07:14:18;3.90;;;2.90;;
21438;SDS011;10880;50.302;18.736;2023-04-03T07:17:00;4.13;;;3.13;;
21438;SDS011;10880;50.302;18.736;2023-04-03T07:20:00;6.27;;;3.37;;
21438;SDS011;10880;50.302;18.736;2023-04-03T07:22:34;5.80;;;3.40;;
21438;SDS011;10880;50.302;18.736;2023-04-03T07:25:28;7.37;;;3.30;;
21438;SDS011;10880;50.302;18.736;2023-04-03T07:28:04;5.30;;;3.00;;
21438;SDS011;10880;50.302;18.736;2023-04-03T07:31:05;6.37;;;3.17;;
21438;SDS011;10880;50.302;18.736;2023-04-03T07:33:48;4.70;;;3.00;;
21438;SDS011;10880;50.302;18.736;2023-04-03T07:36:48;5.83;;;3.40;;
21438;SDS011;10880;50.302;18.736;2023-04-03T07:39:22;5.73;;;3.30;;
21438;SDS011;10880;50.302;18.736;2023-04-03T07:42:21;4.97;;;3.07;;
21438;SDS011;10880;50.302;18.736;2023-04-03T07:44:56;3.27;;;2.77;;
21438;SDS011;10880;50.302;18.736;2023-04-03T07:47:52;6.07;;;3.37;;
21438;SDS011;10880;50.302;18.736;2023-04-03T07:50:25;4.23;;;2.67;;
21438;SDS011;10880;50.302;18.736;2023-04-03T07:53:21;4.73;;;2.97;;
21438;SDS011;10880;50.302;18.736;2023-04-03T07:55:58;5.13;;;3.23;;
21438;SDS011;10880;50.302;18.736;2023-04-03T07:58:55;4.17;;;2.87;;
21438;SDS011;10880;50.302;18.736;2023-04-03T08:01:32;6.13;;;3.63;;
21438;SDS011;10880;50.302;18.736;2023-04-03T08:04:29;4.63;;;3.00;;
21438;SDS011;10880;50.302;18.736;2023-04-03T08:07:24;3.00;;;2.57;;
21438;SDS011;10880;50.302;18.736;2023-04-03T08:09:59;4.73;;;2.57;;
21438;SDS011;10880;50.302;18.736;2023-04-03T08:12:57;6.20;;;2.80;;
21438;SDS011;10880;50.302;18.736;2023-04-03T08:15:31;3.87;;;2.50;;
21438;SDS011;10880;50.302;18.736;2023-04-03T08:22:38;6.27;;;2.77;;
21438;SDS011;10880;50.302;18.736;2023-04-03T08:25:15;4.83;;;2.50;;
21438;SDS011;10880;50.302;18.736;2023-04-03T08:28:17;4.57;;;2.87;;
21438;SDS011;10880;50.302;18.736;2023-04-03T08:30:53;3.37;;;2.43;;
21438;SDS011;10880;50.302;18.736;2023-04-03T08:33:47;4.57;;;2.73;;
21438;SDS011;10880;50.302;18.736;2023-04-03T08:36:22;6.57;;;3.10;;
21438;SDS011;10880;50.302;18.736;2023-04-03T08:39:18;4.70;;;2.70;;
21438;SDS011;10880;50.302;18.736;2023-04-03T08:41:52;4.03;;;2.70;;
21438;SDS011;10880;50.302;18.736;2023-04-03T08:44:55;4.23;;;2.50;;
21438;SDS011;10880;50.302;18.736;2023-04-03T08:47:39;4.93;;;2.40;;
21438;SDS011;10880;50.302;18.736;2023-04-03T08:50:37;4.03;;;2.77;;
21438;SDS011;10880;50.302;18.736;2023-04-03T08:53:18;4.17;;;2.53;;
21438;SDS011;10880;50.302;18.736;2023-04-03T08:56:17;2.97;;;2.40;;
21438;SDS011;10880;50.302;18.736;2023-04-03T08:58:58;5.47;;;2.50;;
21438;SDS011;10880;50.302;18.736;2023-04-03T09:01:53;3.03;;;2.20;;
21438;SDS011;10880;50.302;18.736;2023-04-03T09:04:27;4.50;;;2.53;;
21438;SDS011;10880;50.302;18.736;2023-04-03T09:07:35;3.77;;;2.40;;
21438;SDS011;10880;50.302;18.736;2023-04-03T09:10:14;2.50;;;2.20;;
21438;SDS011;10880;50.302;18.736;2023-04-03T09:13:24;4.73;;;2.60;;
21438;SDS011;10880;50.302;18.736;2023-04-03T09:16:30;5.30;;;2.70;;
21438;SDS011;10880;50.302;18.736;2023-04-03T09:27:52;4.57;;;2.93;;
21438;SDS011;10880;50.302;18.736;2023-04-03T09:30:45;2.93;;;2.60;;
21438;SDS011;10880;50.302;18.736;2023-04-03T09:33:18;3.20;;;2.47;;
21438;SDS011;10880;50.302;18.736;2023-04-03T09:36:12;4.20;;;2.43;;
21438;SDS011;10880;50.302;18.736;2023-04-03T09:38:45;5.57;;;2.80;;
21438;SDS011;10880;50.302;18.736;2023-04-03T09:41:38;7.40;;;4.20;;
21438;SDS011;10880;50.302;18.736;2023-04-03T09:44:28;7.37;;;3.60;;
21438;SDS011;10880;50.302;18.736;2023-04-03T09:47:25;4.97;;;3.00;;
21438;SDS011;10880;50.302;18.736;2023-04-03T09:53:29;3.63;;;2.50;;
21438;SDS011;10880;50.302;18.736;2023-04-03T09:59:14;3.30;;;2.43;;
21438;SDS011;10880;50.302;18.736;2023-04-03T10:01:59;3.77;;;2.43;;
21438;SDS011;10880;50.302;18.736;2023-04-03T10:04:56;4.33;;;2.40;;
21438;SDS011;10880;50.302;18.736;2023-04-03T10:07:31;4.03;;;2.40;;
21438;SDS011;10880;50.302;18.736;2023-04-03T10:10:27;4.30;;;2.40;;
21438;SDS011;10880;50.302;18.736;2023-04-03T10:13:04;2.87;;;2.50;;
21438;SDS011;10880;50.302;18.736;2023-04-03T10:16:02;4.30;;;2.80;;
21438;SDS011;10880;50.302;18.736;2023-04-03T10:18:44;4.83;;;3.10;;
21438;SDS011;10880;50.302;18.736;2023-04-03T10:21:58;4.00;;;2.73;;
21438;SDS011;10880;50.302;18.736;2023-04-03T10:24:56;3.10;;;2.30;;
21438;SDS011;10880;50.302;18.736;2023-04-03T10:42:35;3.47;;;2.80;;
21438;SDS011;10880;50.302;18.736;2023-04-03T10:45:34;3.53;;;2.60;;
21438;SDS011;10880;50.302;18.736;2023-04-03T10:54:23;3.50;;;2.53;;
21438;SDS011;10880;50.302;18.736;2023-04-03T10:57:02;4.10;;;2.60;;
21438;SDS011;10880;50.302;18.736;2023-04-03T11:00:10;6.70;;;3.63;;
21438;SDS011;10880;50.302;18.736;2023-04-03T11:02:57;6.37;;;3.73;;
21438;SDS011;10880;50.302;18.736;2023-04-03T11:05:55;4.53;;;3.00;;
21438;SDS011;10880;50.302;18.736;2023-04-03T11:08:35;5.10;;;3.93;;
21438;SDS011;10880;50.302;18.736;2023-04-03T11:11:43;5.03;;;3.00;;
21438;SDS011;10880;50.302;18.736;2023-04-03T11:23:05;4.80;;;3.27;;
21438;SDS011;10880;50.302;18.736;2023-04-03T11:25:46;4.70;;;3.10;;
21438;SDS011;10880;50.302;18.736;2023-04-03T11:28:44;3.97;;;2.97;;
21438;SDS011;10880;50.302;18.736;2023-04-03T11:34:52;3.20;;;2.87;;
21438;SDS011;10880;50.302;18.736;2023-04-03T11:37:42;4.93;;;3.27;;
21438;SDS011;10880;50.302;18.736;2023-04-03T11:40:42;4.87;;;3.00;;
21438;SDS011;10880;50.302;18.736;2023-04-03T11:43:27;4.20;;;3.00;;
21438;SDS011;10880;50.302;18.736;2023-04-03T12:01:00;4.80;;;3.40;;
21438;SDS011;10880;50.302;18.736;2023-04-03T12:03:56;5.43;;;3.30;;
21438;SDS011;10880;50.302;18.736;2023-04-03T12:10:13;5.40;;;2.97;;
21438;SDS011;10880;50.302;18.736;2023-04-03T12:12:30;4.67;;;3.17;;
21438;SDS011;10880;50.302;18.736;2023-04-03T12:15:43;4.53;;;3.00;;
21438;SDS011;10880;50.302;18.736;2023-04-03T12:24:44;4.37;;;3.07;;
21438;SDS011;10880;50.302;18.736;2023-04-03T12:30:21;4.60;;;2.77;;
21438;SDS011;10880;50.302;18.736;2023-04-03T12:33:02;3.67;;;2.67;;
21438;SDS011;10880;50.302;18.736;2023-04-03T12:36:10;3.43;;;2.50;;
21438;SDS011;10880;50.302;18.736;2023-04-03T12:45:16;6.17;;;3.60;;
21438;SDS011;10880;50.302;18.736;2023-04-03T12:48:17;4.77;;;3.70;;
21438;SDS011;10880;50.302;18.736;2023-04-03T12:50:54;4.70;;;3.07;;
21438;SDS011;10880;50.302;18.736;2023-04-03T12:53:49;6.37;;;4.07;;
21438;SDS011;10880;50.302;18.736;2023-04-03T12:56:30;9.23;;;4.80;;
21438;SDS011;10880;50.302;18.736;2023-04-03T12:59:25;8.60;;;4.70;;
21438;SDS011;10880;50.302;18.736;2023-04-03T13:02:00;10.43;;;4.43;;
21438;SDS011;10880;50.302;18.736;2023-04-03T13:04:55;6.27;;;3.63;;
21438;SDS011;10880;50.302;18.736;2023-04-03T13:07:32;6.43;;;3.50;;
21438;SDS011;10880;50.302;18.736;2023-04-03T13:10:27;4.60;;;2.90;;
21438;SDS011;10880;50.302;18.736;2023-04-03T13:13:08;4.60;;;3.10;;
21438;SDS011;10880;50.302;18.736;2023-04-03T13:16:09;5.90;;;3.30;;
21438;SDS011;10880;50.302;18.736;2023-04-03T13:18:43;6.17;;;3.10;;
21438;SDS011;10880;50.302;18.736;2023-04-03T13:21:44;4.33;;;3.00;;
21438;SDS011;10880;50.302;18.736;2023-04-03T13:24:39;4.67;;;2.90;;
21438;SDS011;10880;50.302;18.736;2023-04-03T13:27:13;4.90;;;3.30;;
21438;SDS011;10880;50.302;18.736;2023-04-03T13:33:00;5.57;;;3.27;;
21438;SDS011;10880;50.302;18.736;2023-04-03T13:35:58;5.40;;;3.80;;
21438;SDS011;10880;50.302;18.736;2023-04-03T13:38:37;5.87;;;3.53;;
21438;SDS011;10880;50.302;18.736;2023-04-03T13:47:18;6.63;;;3.40;;
21438;SDS011;10880;50.302;18.736;2023-04-03T13:50:00;4.30;;;3.13;;
21438;SDS011;10880;50.302;18.736;2023-04-03T13:53:13;3.70;;;2.70;;
21438;SDS011;10880;50.302;18.736;2023-04-03T14:04:45;5.83;;;3.63;;
21438;SDS011;10880;50.302;18.736;2023-04-03T14:07:26;5.87;;;3.40;;
21438;SDS011;10880;50.302;18.736;2023-04-03T14:10:36;6.43;;;2.90;;
21438;SDS011;10880;50.302;18.736;2023-04-03T14:13:14;3.63;;;2.50;;
21438;SDS011;10880;50.302;18.736;2023-04-03T14:16:11;8.87;;;4.43;;
21438;SDS011;10880;50.302;18.736;2023-04-03T14:18:50;7.90;;;4.20;;
21438;SDS011;10880;50.302;18.736;2023-04-03T14:21:43;5.63;;;3.73;;
21438;SDS011;10880;50.302;18.736;2023-04-03T14:24:36;5.30;;;3.37;;
21438;SDS011;10880;50.302;18.736;2023-04-03T14:27:13;5.17;;;3.60;;
21438;SDS011;10880;50.302;18.736;2023-04-03T14:30:20;8.90;;;4.00;;
21438;SDS011;10880;50.302;18.736;2023-04-03T14:32:56;10.30;;;4.47;;
21438;SDS011;10880;50.302;18.736;2023-04-03T14:35:49;9.20;;;4.10;;
21438;SDS011;10880;50.302;18.736;2023-04-03T14:38:26;16.33;;;5.90;;
21438;SDS011;10880;50.302;18.736;2023-04-03T14:41:22;10.63;;;4.20;;
21438;SDS011;10880;50.302;18.736;2023-04-03T14:43:57;5.83;;;3.77;;
21438;SDS011;10880;50.302;18.736;2023-04-03T14:46:51;7.70;;;4.30;;
21438;SDS011;10880;50.302;18.736;2023-04-03T14:49:26;5.90;;;3.87;;
21438;SDS011;10880;50.302;18.736;2023-04-03T14:52:21;5.47;;;3.50;;
21438;SDS011;10880;50.302;18.736;2023-04-03T14:54:56;4.43;;;3.20;;
21438;SDS011;10880;50.302;18.736;2023-04-03T14:57:49;7.53;;;4.30;;
21438;SDS011;10880;50.302;18.736;2023-04-03T15:00:23;11.03;;;5.50;;
21438;SDS011;10880;50.302;18.736;2023-04-03T15:03:17;11.47;;;5.00;;
21438;SDS011;10880;50.302;18.736;2023-04-03T15:05:52;5.73;;;3.50;;
21438;SDS011;10880;50.302;18.736;2023-04-03T15:08:46;7.83;;;3.80;;
21438;SDS011;10880;50.302;18.736;2023-04-03T15:11:20;5.93;;;3.73;;
21438;SDS011;10880;50.302;18.736;2023-04-03T15:14:13;6.27;;;3.57;;
21438;SDS011;10880;50.302;18.736;2023-04-03T15:16:49;6.97;;;3.53;;
21438;SDS011;10880;50.302;18.736;2023-04-03T15:19:42;5.60;;;3.47;;
21438;SDS011;10880;50.302;18.736;2023-04-03T15:22:17;5.63;;;3.43;;
21438;SDS011;10880;50.302;18.736;2023-04-03T15:25:12;5.80;;;3.50;;
21438;SDS011;10880;50.302;18.736;2023-04-03T15:27:45;5.80;;;3.70;;
21438;SDS011;10880;50.302;18.736;2023-04-03T15:30:38;6.43;;;3.90;;
21438;SDS011;10880;50.302;18.736;2023-04-03T15:33:12;5.60;;;3.10;;
21438;SDS011;10880;50.302;18.736;2023-04-03T15:36:05;6.63;;;3.40;;
21438;SDS011;10880;50.302;18.736;2023-04-03T15:38:38;31.63;;;7.37;;
21438;SDS011;10880;50.302;18.736;2023-04-03T15:41:31;33.60;;;10.73;;
21438;SDS011;10880;50.302;18.736;2023-04-03T15:44:04;16.17;;;6.77;;
21438;SDS011;10880;50.302;18.736;2023-04-03T15:46:57;8.87;;;4.93;;
21438;SDS011;10880;50.302;18.736;2023-04-03T15:49:34;8.37;;;3.80;;
21438;SDS011;10880;50.302;18.736;2023-04-03T15:52:29;6.57;;;4.00;;
21438;SDS011;10880;50.302;18.736;2023-04-03T15:55:02;5.23;;;3.47;;
21438;SDS011;10880;50.302;18.736;2023-04-03T15:57:56;7.10;;;3.20;;
21438;SDS011;10880;50.302;18.736;2023-04-03T16:00:29;6.13;;;3.40;;
21438;SDS011;10880;50.302;18.736;2023-04-03T16:03:23;6.10;;;3.47;;
21438;SDS011;10880;50.302;18.736;2023-04-03T16:05:56;5.10;;;3.50;;
21438;SDS011;10880;50.302;18.736;2023-04-03T16:08:49;4.10;;;2.97;;
21438;SDS011;10880;50.302;18.736;2023-04-03T16:11:26;4.60;;;3.03;;
21438;SDS011;10880;50.302;18.736;2023-04-03T16:14:20;6.17;;;3.60;;
21438;SDS011;10880;50.302;18.736;2023-04-03T16:16:53;8.47;;;4.50;;
21438;SDS011;10880;50.302;18.736;2023-04-03T16:19:46;8.57;;;3.87;;
21438;SDS011;10880;50.302;18.736;2023-04-03T16:22:19;8.70;;;4.40;;
21438;SDS011;10880;50.302;18.736;2023-04-03T16:25:13;9.17;;;4.50;;
21438;SDS011;10880;50.302;18.736;2023-04-03T16:27:47;9.17;;;4.40;;
21438;SDS011;10880;50.302;18.736;2023-04-03T16:30:41;7.63;;;4.47;;
21438;SDS011;10880;50.302;18.736;2023-04-03T16:33:15;8.63;;;4.43;;
21438;SDS011;10880;50.302;18.736;2023-04-03T16:36:08;7.10;;;3.80;;
21438;SDS011;10880;50.302;18.736;2023-04-03T16:38:41;6.03;;;3.47;;
21438;SDS011;10880;50.302;18.736;2023-04-03T16:41:34;5.00;;;3.50;;
21438;SDS011;10880;50.302;18.736;2023-04-03T16:44:07;5.53;;;3.00;;
21438;SDS011;10880;50.302;18.736;2023-04-03T16:47:00;5.00;;;3.00;;
21438;SDS011;10880;50.302;18.736;2023-04-03T16:49:34;6.37;;;3.33;;
21438;SDS011;10880;50.302;18.736;2023-04-03T16:52:27;5.43;;;3.27;;
21438;SDS011;10880;50.302;18.736;2023-04-03T16:55:00;5.90;;;3.47;;
21438;SDS011;10880;50.302;18.736;2023-04-03T16:57:53;6.60;;;3.70;;
21438;SDS011;10880;50.302;18.736;2023-04-03T17:00:29;7.30;;;3.60;;
21438;SDS011;10880;50.302;18.736;2023-04-03T17:03:22;6.50;;;3.70;;
21438;SDS011;10880;50.302;18.736;2023-04-03T17:05:57;12.10;;;5.33;;
21438;SDS011;10880;50.302;18.736;2023-04-03T17:08:51;21.83;;;7.83;;
21438;SDS011;10880;50.302;18.736;2023-04-03T17:11:27;13.60;;;5.70;;
21438;SDS011;10880;50.302;18.736;2023-04-03T17:14:23;10.73;;;5.10;;
21438;SDS011;10880;50.302;18.736;2023-04-03T17:16:57;8.27;;;4.20;;
21438;SDS011;10880;50.302;18.736;2023-04-03T17:19:50;5.80;;;3.40;;
21438;SDS011;10880;50.302;18.736;2023-04-03T17:22:25;5.50;;;3.20;;
21438;SDS011;10880;50.302;18.736;2023-04-03T17:25:18;6.40;;;3.10;;
21438;SDS011;10880;50.302;18.736;2023-04-03T17:27:52;3.57;;;2.83;;
21438;SDS011;10880;50.302;18.736;2023-04-03T17:30:45;6.80;;;3.67;;
21438;SDS011;10880;50.302;18.736;2023-04-03T17:33:18;6.10;;;3.73;;
21438;SDS011;10880;50.302;18.736;2023-04-03T17:36:12;4.90;;;3.13;;
21438;SDS011;10880;50.302;18.736;2023-04-03T17:38:45;5.77;;;3.17;;
21438;SDS011;10880;50.302;18.736;2023-04-03T17:41:38;4.20;;;2.73;;
21438;SDS011;10880;50.302;18.736;2023-04-03T17:44:11;6.23;;;3.83;;
21438;SDS011;10880;50.302;18.736;2023-04-03T17:47:04;5.13;;;3.27;;
21438;SDS011;10880;50.302;18.736;2023-04-03T17:49:41;7.00;;;3.77;;
21438;SDS011;10880;50.302;18.736;2023-04-03T17:52:36;10.57;;;4.40;;
21438;SDS011;10880;50.302;18.736;2023-04-03T17:55:09;15.47;;;6.93;;
21438;SDS011;10880;50.302;18.736;2023-04-03T17:58:02;12.73;;;6.57;;
21438;SDS011;10880;50.302;18.736;2023-04-03T18:00:35;11.33;;;5.50;;
21438;SDS011;10880;50.302;18.736;2023-04-03T18:03:28;14.40;;;6.60;;
21438;SDS011;10880;50.302;18.736;2023-04-03T18:06:05;12.90;;;6.83;;
21438;SDS011;10880;50.302;18.736;2023-04-03T18:09:06;10.27;;;5.30;;
21438;SDS011;10880;50.302;18.736;2023-04-03T18:11:46;10.67;;;5.20;;
21438;SDS011;10880;50.302;18.736;2023-04-03T18:14:39;8.13;;;5.07;;
21438;SDS011;10880;50.302;18.736;2023-04-03T18:17:12;13.20;;;5.80;;
21438;SDS011;10880;50.302;18.736;2023-04-03T18:20:06;10.77;;;4.70;;
21438;SDS011;10880;50.302;18.736;2023-04-03T18:22:42;12.23;;;5.10;;